Time;durP1;ratioP1;P1;durP2;ratioP2;P2;SDS_P1;SDS_P2;PMS_P1;PMS_P2;Temp;Humidity;BMP_temperature;BMP_pressure;BME280_temperature;BME280_humidity;BME280_pressure;Samples;Min_cycle;Max_cycle;Signal;HPM_P1;HPM_P2
2022/06/10 00:00:34;;;;;;;12.63;5.30;;;;;;;;;;5030259;28;20042;-73
2022/06/10 00:03:00;;;;;;;10.48;4.78;;;;;;;;;;5012187;28;20057;-72
2022/06/10 00:05:28;;;;;;;11.88;4.68;;;;;;;;;;5011806;28;20099;-73
2022/06/10 00:07:54;;;;;;;11.60;4.72;;;;;;;;;;5029877;28;20042;-73
2022/06/10 00:10:23;;;;;;;13.18;5.13;;;;;;;;;;4995723;28;20041;-73
2022/06/10 00:12:50;;;;;;;17.05;5.30;;;;;;;;;;5029856;28;20037;-72
2022/06/10 00:15:16;;;;;;;10.68;4.63;;;;;;;;;;5012700;28;20029;-73
2022/06/10 00:17:43;;;;;;;10.30;4.40;;;;;;;;;;5012332;28;20041;-73
2022/06/10 00:20:10;;;;;;;10.13;4.63;;;;;;;;;;5010995;28;20116;-73
2022/06/10 00:22:36;;;;;;;11.35;4.90;;;;;;;;;;5029320;28;20041;-73
2022/06/10 00:25:03;;;;;;;8.32;5.03;;;;;;;;;;4997585;28;20030;-73
2022/06/10 00:27:29;;;;;;;12.93;4.88;;;;;;;;;;5012892;28;20041;-73
2022/06/10 00:29:55;;;;;;;10.68;4.57;;;;;;;;;;5033638;28;20038;-73
2022/06/10 00:32:21;;;;;;;12.18;4.60;;;;;;;;;;4999468;28;20037;-73
2022/06/10 00:34:47;;;;;;;9.88;4.60;;;;;;;;;;5015548;28;20404;-73
2022/06/10 00:37:13;;;;;;;9.10;4.53;;;;;;;;;;5014917;28;20060;-73
2022/06/10 00:39:40;;;;;;;8.93;4.43;;;;;;;;;;5033344;28;20045;-73
2022/06/10 00:42:06;;;;;;;10.68;4.63;;;;;;;;;;5016120;28;20033;-73
2022/06/10 00:44:47;;;;;;;7.20;4.50;;;;;;;;;;5013588;28;20045;-73
2022/06/10 00:47:19;;;;;;;9.77;4.40;;;;;;;;;;5032545;28;20381;-73
2022/06/10 00:50:05;;;;;;;10.50;4.47;;;;;;;;;;5015363;28;20042;-72
2022/06/10 00:52:35;;;;;;;12.80;4.47;;;;;;;;;;4998824;28;20049;-72
2022/06/10 00:55:02;;;;;;;8.52;4.80;;;;;;;;;;5015542;28;20038;-72
2022/06/10 00:57:33;;;;;;;11.48;4.03;;;;;;;;;;5032149;28;20140;-73
2022/06/10 01:00:03;;;;;;;12.68;4.45;;;;;;;;;;5014586;28;20037;-73
2022/06/10 01:02:35;;;;;;;12.02;4.82;;;;;;;;;;5014060;28;20073;-73
2022/06/10 01:05:02;;;;;;;7.20;3.92;;;;;;;;;;5032753;28;20451;-73
2022/06/10 01:07:33;;;;;;;9.45;4.30;;;;;;;;;;5014660;28;20662;-73
2022/06/10 01:10:00;;;;;;;11.70;4.50;;;;;;;;;;4997045;28;20037;-73
2022/06/10 01:12:26;;;;;;;8.15;3.92;;;;;;;;;;5014856;28;20079;-73
2022/06/10 01:15:28;;;;;;;10.55;4.18;;;;;;;;;;5031277;28;20550;-73
2022/06/10 01:18:01;;;;;;;11.82;4.43;;;;;;;;;;4932992;29;21203;-72
2022/06/10 01:20:32;;;;;;;11.25;4.60;;;;;;;;;;5003297;28;20128;-73
2022/06/10 01:23:17;;;;;;;15.00;4.78;;;;;;;;;;5015242;28;20045;-73
2022/06/10 01:26:02;;;;;;;12.32;4.25;;;;;;;;;;5031641;28;20433;-72
2022/06/10 01:28:37;;;;;;;10.80;4.32;;;;;;;;;;5031844;28;20068;-73
2022/06/10 01:31:12;;;;;;;14.05;4.60;;;;;;;;;;5014797;28;20046;-73
2022/06/10 01:33:38;;;;;;;10.47;4.40;;;;;;;;;;5032875;28;20099;-73
2022/06/10 01:36:24;;;;;;;15.20;4.47;;;;;;;;;;5030641;28;20292;-72
2022/06/10 01:39:02;;;;;;;10.50;4.25;;;;;;;;;;5014563;28;20121;-73
2022/06/10 01:41:33;;;;;;;8.27;4.40;;;;;;;;;;5013590;28;20045;-73
2022/06/10 01:44:15;;;;;;;12.00;4.80;;;;;;;;;;5013630;28;20100;-72
2022/06/10 01:46:46;;;;;;;12.55;4.60;;;;;;;;;;5012583;28;20131;-73
2022/06/10 01:49:17;;;;;;;15.05;4.90;;;;;;;;;;5032487;28;20034;-73
2022/06/10 01:51:58;;;;;;;12.93;4.85;;;;;;;;;;4995542;28;20087;-72
2022/06/10 01:54:31;;;;;;;12.68;5.00;;;;;;;;;;5033292;28;20568;-73
2022/06/10 01:56:58;;;;;;;12.55;4.25;;;;;;;;;;5013689;28;20626;-72
2022/06/10 01:59:37;;;;;;;10.40;5.00;;;;;;;;;;5011324;28;20081;-72
2022/06/10 02:02:10;;;;;;;14.20;4.88;;;;;;;;;;5008170;28;20188;-73
2022/06/10 02:04:40;;;;;;;10.43;5.13;;;;;;;;;;4996030;28;20056;-73
2022/06/10 02:07:15;;;;;;;12.05;5.15;;;;;;;;;;5010064;28;20049;-72
2022/06/10 02:09:45;;;;;;;9.95;5.05;;;;;;;;;;5031374;28;20037;-72
2022/06/10 02:12:14;;;;;;;12.77;5.03;;;;;;;;;;5009050;28;20120;-72
2022/06/10 02:15:00;;;;;;;13.65;5.32;;;;;;;;;;5030376;28;20045;-73
2022/06/10 02:17:29;;;;;;;11.55;5.13;;;;;;;;;;4995415;28;20175;-73
2022/06/10 02:19:58;;;;;;;13.00;5.18;;;;;;;;;;5030843;28;20400;-73
2022/06/10 02:22:35;;;;;;;13.25;5.35;;;;;;;;;;5010204;28;20064;-72
2022/06/10 02:25:27;;;;;;;16.85;5.32;;;;;;;;;;5013620;28;20046;-72
2022/06/10 02:27:55;;;;;;;11.80;5.20;;;;;;;;;;5027088;28;20042;-72
2022/06/10 02:30:25;;;;;;;12.27;4.50;;;;;;;;;;5011835;28;20461;-73
2022/06/10 02:32:51;;;;;;;12.40;4.90;;;;;;;;;;5009160;28;20447;-73
2022/06/10 02:35:18;;;;;;;13.77;4.80;;;;;;;;;;5011698;28;20042;-73
2022/06/10 02:38:06;;;;;;;11.82;4.57;;;;;;;;;;5013319;28;20063;-72
2022/06/10 02:40:41;;;;;;;12.77;4.70;;;;;;;;;;4996857;28;20033;-72
2022/06/10 02:43:07;;;;;;;14.40;4.50;;;;;;;;;;5011728;28;20041;-72
2022/06/10 02:45:37;;;;;;;12.48;4.80;;;;;;;;;;5031575;28;20496;-72
2022/06/10 02:48:14;;;;;;;10.73;4.53;;;;;;;;;;5012340;28;20037;-72
2022/06/10 02:50:40;;;;;;;12.65;4.78;;;;;;;;;;5013174;28;20069;-72
2022/06/10 02:53:08;;;;;;;11.32;4.30;;;;;;;;;;5011266;28;20065;-72
2022/06/10 02:55:34;;;;;;;14.23;5.13;;;;;;;;;;5013454;28;20045;-72
2022/06/10 03:03:37;;;;;;;14.13;4.90;;;;;;;;;;5008522;28;20061;-73
2022/06/10 03:06:12;;;;;;;11.95;4.88;;;;;;;;;;5012634;28;20041;-72
2022/06/10 03:08:45;;;;;;;10.35;4.80;;;;;;;;;;5009242;28;20076;-72
2022/06/10 03:11:31;;;;;;;13.57;4.50;;;;;;;;;;5030291;28;20040;-72
2022/06/10 03:14:07;;;;;;;14.07;4.80;;;;;;;;;;5010552;28;20052;-72
2022/06/10 03:16:36;;;;;;;9.65;4.70;;;;;;;;;;5012849;28;20045;-72
2022/06/10 03:19:13;;;;;;;11.88;4.97;;;;;;;;;;5043915;28;20103;-72
2022/06/10 03:21:39;;;;;;;12.18;4.50;;;;;;;;;;5012258;28;20037;-72
2022/06/10 03:24:11;;;;;;;12.93;4.60;;;;;;;;;;5012369;28;20467;-73
2022/06/10 03:26:42;;;;;;;12.25;4.85;;;;;;;;;;5012175;28;20041;-72
2022/06/10 03:29:24;;;;;;;19.38;4.70;;;;;;;;;;5010923;28;20060;-72
2022/06/10 03:31:57;;;;;;;11.95;4.55;;;;;;;;;;5012458;28;20041;-73
2022/06/10 03:34:32;;;;;;;14.77;4.80;;;;;;;;;;5028222;28;20050;-73
2022/06/10 03:36:59;;;;;;;14.15;4.88;;;;;;;;;;5010343;28;20037;-73
2022/06/10 03:39:26;;;;;;;14.55;4.53;;;;;;;;;;5012236;28;20103;-72
2022/06/10 03:42:05;;;;;;;11.23;4.40;;;;;;;;;;5012566;28;20064;-73
2022/06/10 03:44:32;;;;;;;14.48;4.20;;;;;;;;;;5011948;28;20132;-73
2022/06/10 03:46:58;;;;;;;15.07;4.60;;;;;;;;;;5011065;28;20041;-73
2022/06/10 03:49:30;;;;;;;17.60;4.45;;;;;;;;;;5029855;28;20081;-73
2022/06/10 03:51:57;;;;;;;13.23;3.80;;;;;;;;;;5012369;28;20596;-72
2022/06/10 03:54:23;;;;;;;13.80;3.75;;;;;;;;;;5012139;28;20469;-73
2022/06/10 03:56:51;;;;;;;15.57;3.90;;;;;;;;;;5008321;28;20041;-73
2022/06/10 03:59:18;;;;;;;13.27;3.90;;;;;;;;;;5012189;28;20045;-73
2022/06/10 04:01:44;;;;;;;10.73;3.40;;;;;;;;;;5031795;28;20033;-73
2022/06/10 04:04:10;;;;;;;15.13;4.13;;;;;;;;;;5031711;28;20042;-73
2022/06/10 04:06:36;;;;;;;13.00;3.83;;;;;;;;;;5011859;28;20048;-72
2022/06/10 04:09:02;;;;;;;9.95;3.70;;;;;;;;;;5040510;28;20030;-73
2022/06/10 04:11:28;;;;;;;13.30;3.40;;;;;;;;;;4998791;28;20146;-73
2022/06/10 04:13:54;;;;;;;10.55;3.22;;;;;;;;;;5016048;28;20499;-73
2022/06/10 04:16:20;;;;;;;16.88;3.63;;;;;;;;;;5035849;28;20408;-72
2022/06/10 04:18:46;;;;;;;10.43;3.50;;;;;;;;;;5030312;28;20136;-73
2022/06/10 04:21:13;;;;;;;11.00;3.55;;;;;;;;;;5015340;28;20374;-73
2022/06/10 04:23:39;;;;;;;14.60;3.17;;;;;;;;;;5012440;28;20103;-73
2022/06/10 04:26:05;;;;;;;13.73;3.85;;;;;;;;;;5016025;28;20045;-72
2022/06/10 04:28:31;;;;;;;14.05;3.22;;;;;;;;;;5029107;28;20386;-73
2022/06/10 04:30:58;;;;;;;8.05;2.92;;;;;;;;;;5013402;28;20040;-73
2022/06/10 04:33:24;;;;;;;16.10;3.50;;;;;;;;;;5015053;28;20121;-73
2022/06/10 04:35:51;;;;;;;10.90;3.28;;;;;;;;;;4995535;28;20041;-73
2022/06/10 04:38:18;;;;;;;12.32;3.50;;;;;;;;;;4980586;28;20048;-73
2022/06/10 04:40:46;;;;;;;10.70;3.25;;;;;;;;;;4995247;28;20052;-73
2022/06/10 04:43:12;;;;;;;11.73;3.30;;;;;;;;;;5014137;28;20041;-73
2022/06/10 04:45:49;;;;;;;10.82;3.00;;;;;;;;;;5029689;28;20069;-73
2022/06/10 04:48:16;;;;;;;13.98;3.30;;;;;;;;;;5011330;28;20083;-73
2022/06/10 04:50:42;;;;;;;11.07;3.30;;;;;;;;;;5010527;28;20374;-73
2022/06/10 04:53:08;;;;;;;11.73;3.13;;;;;;;;;;4998083;28;20056;-73
2022/06/10 04:55:34;;;;;;;8.70;3.20;;;;;;;;;;5031973;28;20125;-73
2022/06/10 04:58:01;;;;;;;12.63;3.97;;;;;;;;;;5011758;28;20038;-73
2022/06/10 05:00:29;;;;;;;10.50;3.17;;;;;;;;;;5013426;28;20041;-73
2022/06/10 05:02:55;;;;;;;11.27;3.55;;;;;;;;;;5012714;28;20120;-73
2022/06/10 05:05:21;;;;;;;11.18;3.38;;;;;;;;;;5013726;28;20091;-73
2022/06/10 05:07:47;;;;;;;16.10;3.88;;;;;;;;;;5014691;28;20790;-73
2022/06/10 05:10:14;;;;;;;11.88;4.00;;;;;;;;;;5015013;28;20037;-73
2022/06/10 05:12:41;;;;;;;9.70;3.70;;;;;;;;;;5014106;28;20079;-73
2022/06/10 05:15:07;;;;;;;11.77;3.53;;;;;;;;;;5032781;28;20491;-73
2022/06/10 05:17:33;;;;;;;13.98;4.32;;;;;;;;;;5014831;28;20041;-72
2022/06/10 05:19:59;;;;;;;13.27;3.63;;;;;;;;;;5030839;28;20044;-73
2022/06/10 05:22:25;;;;;;;9.55;3.70;;;;;;;;;;5013844;28;20037;-73
2022/06/10 05:24:51;;;;;;;10.90;4.25;;;;;;;;;;5014093;28;20103;-73
2022/06/10 05:27:18;;;;;;;14.50;4.57;;;;;;;;;;5011369;28;20033;-73
2022/06/10 05:29:44;;;;;;;12.15;4.03;;;;;;;;;;5013681;28;20040;-73
2022/06/10 05:32:10;;;;;;;15.63;4.38;;;;;;;;;;4997624;28;20084;-73
2022/06/10 05:34:44;;;;;;;10.35;3.85;;;;;;;;;;5014253;28;20041;-73
2022/06/10 05:37:11;;;;;;;12.30;4.15;;;;;;;;;;5013908;28;20079;-74
2022/06/10 05:39:37;;;;;;;11.27;3.70;;;;;;;;;;5031295;28;20044;-73
2022/06/10 05:42:07;;;;;;;11.73;4.15;;;;;;;;;;5030871;28;20037;-73
2022/06/10 05:44:43;;;;;;;11.65;3.60;;;;;;;;;;5013984;28;20179;-73
2022/06/10 05:47:11;;;;;;;11.10;3.40;;;;;;;;;;5013475;28;20033;-73
2022/06/10 05:49:38;;;;;;;12.25;3.90;;;;;;;;;;5013618;28;20037;-73
2022/06/10 05:52:06;;;;;;;10.63;3.78;;;;;;;;;;5013952;28;20489;-73
2022/06/10 05:54:32;;;;;;;13.15;3.58;;;;;;;;;;5013174;28;20041;-73
2022/06/10 05:56:58;;;;;;;14.00;4.05;;;;;;;;;;5014169;28;20592;-71
2022/06/10 05:59:24;;;;;;;14.52;4.25;;;;;;;;;;5013539;28;20041;-73
2022/06/10 06:01:50;;;;;;;16.02;4.40;;;;;;;;;;5013661;28;20045;-73
2022/06/10 06:04:16;;;;;;;16.42;4.07;;;;;;;;;;5029861;28;20045;-73
2022/06/10 06:06:43;;;;;;;15.85;4.10;;;;;;;;;;5013711;28;20459;-73
2022/06/10 06:09:12;;;;;;;12.90;4.72;;;;;;;;;;4996575;28;20055;-73
2022/06/10 06:11:38;;;;;;;11.52;4.68;;;;;;;;;;5027173;28;20493;-73
2022/06/10 06:14:04;;;;;;;11.43;4.32;;;;;;;;;;5009900;28;20481;-73
2022/06/10 06:16:30;;;;;;;11.07;4.15;;;;;;;;;;5010976;28;20098;-73
2022/06/10 06:18:56;;;;;;;11.57;4.10;;;;;;;;;;5009115;28;20047;-73
2022/06/10 06:21:22;;;;;;;10.93;4.47;;;;;;;;;;5011004;28;20087;-73
2022/06/10 06:23:48;;;;;;;11.85;5.10;;;;;;;;;;5001977;28;20072;-73
2022/06/10 06:26:15;;;;;;;9.93;4.47;;;;;;;;;;5009452;28;20049;-73
2022/06/10 06:28:42;;;;;;;11.40;4.20;;;;;;;;;;5029701;28;20540;-73
2022/06/10 06:31:08;;;;;;;13.13;4.45;;;;;;;;;;5022739;28;20057;-73
2022/06/10 06:33:34;;;;;;;9.75;4.30;;;;;;;;;;5011736;28;20045;-73
2022/06/10 06:36:01;;;;;;;8.70;4.22;;;;;;;;;;5014944;28;20077;-73
2022/06/10 06:38:28;;;;;;;14.10;4.68;;;;;;;;;;5012702;28;20128;-73
2022/06/10 06:40:54;;;;;;;10.18;4.57;;;;;;;;;;5028193;28;20045;-73
2022/06/10 06:43:20;;;;;;;12.05;5.10;;;;;;;;;;5029706;28;20096;-73
2022/06/10 06:45:46;;;;;;;12.65;5.18;;;;;;;;;;5029864;28;20072;-73
2022/06/10 06:48:12;;;;;;;14.90;4.88;;;;;;;;;;5029198;28;20128;-73
2022/06/10 06:50:46;;;;;;;14.95;5.03;;;;;;;;;;5029216;28;20536;-73
2022/06/10 06:53:12;;;;;;;10.85;4.90;;;;;;;;;;5009283;28;20076;-73
2022/06/10 06:55:39;;;;;;;13.65;4.95;;;;;;;;;;5010347;28;20127;-74
2022/06/10 06:58:06;;;;;;;14.10;5.28;;;;;;;;;;5011536;28;20045;-74
2022/06/10 07:00:32;;;;;;;12.25;4.82;;;;;;;;;;5011692;28;20107;-73
2022/06/10 07:02:58;;;;;;;11.63;4.32;;;;;;;;;;5030599;28;20042;-73
2022/06/10 07:05:24;;;;;;;11.98;3.80;;;;;;;;;;5012573;28;20046;-73
2022/06/10 07:07:51;;;;;;;14.95;4.60;;;;;;;;;;5012998;28;20033;-73
2022/06/10 07:10:18;;;;;;;10.10;3.92;;;;;;;;;;5012890;28;20029;-73
2022/06/10 07:12:44;;;;;;;11.52;3.67;;;;;;;;;;5011746;28;20504;-73
2022/06/10 07:15:10;;;;;;;10.48;3.88;;;;;;;;;;5012070;28;20048;-73
2022/06/10 07:17:36;;;;;;;10.85;3.65;;;;;;;;;;5030089;28;20120;-73
2022/06/10 07:20:03;;;;;;;13.27;3.97;;;;;;;;;;5012911;28;20507;-73
2022/06/10 07:22:30;;;;;;;11.35;3.72;;;;;;;;;;4996641;28;20754;-73
2022/06/10 07:24:56;;;;;;;11.45;3.45;;;;;;;;;;4995849;28;20049;-73
2022/06/10 07:27:22;;;;;;;12.88;4.20;;;;;;;;;;5013035;28;20381;-73
2022/06/10 07:29:48;;;;;;;10.25;3.80;;;;;;;;;;5012027;28;20033;-73
2022/06/10 07:32:15;;;;;;;13.95;4.00;;;;;;;;;;5012177;28;20033;-73
2022/06/10 07:34:41;;;;;;;9.77;3.72;;;;;;;;;;4995505;28;20128;-73
2022/06/10 07:37:07;;;;;;;13.43;3.72;;;;;;;;;;5012322;28;20127;-73
2022/06/10 07:39:33;;;;;;;11.93;3.80;;;;;;;;;;5012788;28;20528;-73
2022/06/10 07:42:00;;;;;;;12.77;3.80;;;;;;;;;;5029944;28;20087;-73
2022/06/10 07:44:31;;;;;;;12.95;3.63;;;;;;;;;;5011169;28;20053;-73
2022/06/10 07:46:58;;;;;;;8.73;3.70;;;;;;;;;;5011869;28;20448;-73
2022/06/10 07:49:24;;;;;;;11.68;3.92;;;;;;;;;;5010183;28;20093;-73
2022/06/10 07:51:50;;;;;;;10.90;3.50;;;;;;;;;;5011051;28;20059;-73
2022/06/10 07:54:17;;;;;;;12.57;3.80;;;;;;;;;;5007561;28;20519;-73
2022/06/10 08:06:40;;;;;;;11.77;3.55;;;;;;;;;;5008129;28;22063;-76
2022/06/10 08:12:09;;;;;;;10.27;3.20;;;;;;;;;;4132882;23;20047;-73
2022/06/10 08:14:35;;;;;;;8.95;3.20;;;;;;;;;;4968467;28;20518;-74
2022/06/10 08:17:06;;;;;;;11.35;3.08;;;;;;;;;;4984578;28;20129;-74
2022/06/10 08:19:32;;;;;;;10.30;3.00;;;;;;;;;;4975251;28;20050;-73
2022/06/10 08:24:43;;;;;;;9.63;2.90;;;;;;;;;;4966599;28;20076;-75
2022/06/10 08:29:40;;;;;;;12.93;3.17;;;;;;;;;;4938775;28;20055;-78
2022/06/10 08:32:06;;;;;;;8.80;2.78;;;;;;;;;;4918157;29;20086;-81
2022/06/10 08:34:32;;;;;;;11.43;3.20;;;;;;;;;;4933742;29;20050;-80
2022/06/10 08:37:01;;;;;;;14.55;4.10;;;;;;;;;;4918684;28;20078;-81
2022/06/10 08:39:28;;;;;;;14.30;3.25;;;;;;;;;;4914816;29;20081;-79
2022/06/10 08:41:56;;;;;;;11.45;3.53;;;;;;;;;;4932256;29;20042;-78
2022/06/10 08:44:47;;;;;;;11.75;3.67;;;;;;;;;;4933459;29;20039;-79
2022/06/10 08:47:19;;;;;;;11.52;3.30;;;;;;;;;;4918753;29;20496;-79
2022/06/10 08:49:52;;;;;;;11.35;3.40;;;;;;;;;;4952237;28;20472;-79
2022/06/10 08:52:30;;;;;;;11.32;3.33;;;;;;;;;;4926692;29;20073;-79
2022/06/10 08:55:15;;;;;;;13.48;4.53;;;;;;;;;;4939398;29;20065;-79
2022/06/10 08:57:45;;;;;;;11.90;3.25;;;;;;;;;;4938670;29;20534;-79
2022/06/10 09:00:27;;;;;;;14.93;3.45;;;;;;;;;;4939592;29;20064;-79
2022/06/10 09:03:01;;;;;;;9.40;3.80;;;;;;;;;;4939940;29;20043;-79
2022/06/10 09:05:35;;;;;;;16.17;4.50;;;;;;;;;;4939376;29;20396;-79
2022/06/10 09:08:03;;;;;;;10.25;3.92;;;;;;;;;;4956702;28;20071;-80
2022/06/10 09:10:49;;;;;;;11.77;4.20;;;;;;;;;;4923561;29;20432;-79
2022/06/10 09:13:19;;;;;;;10.65;3.70;;;;;;;;;;4938814;28;20534;-79
2022/06/10 09:16:17;;;;;;;11.43;4.55;;;;;;;;;;4956097;28;20125;-78
2022/06/10 09:18:50;;;;;;;11.27;4.40;;;;;;;;;;4902309;29;20428;-78
2022/06/10 09:21:24;;;;;;;12.55;4.30;;;;;;;;;;4939483;29;20047;-78
2022/06/10 09:23:50;;;;;;;45.22;11.65;;;;;;;;;;4938298;29;20055;-79
2022/06/10 09:26:20;;;;;;;11.38;4.13;;;;;;;;;;4922212;29;20396;-79
2022/06/10 09:28:46;;;;;;;16.40;4.97;;;;;;;;;;4950095;28;20415;-77
2022/06/10 09:31:17;;;;;;;11.05;4.03;;;;;;;;;;4941245;28;20082;-78
2022/06/10 09:33:58;;;;;;;11.65;3.70;;;;;;;;;;4957286;28;20137;-78
2022/06/10 09:36:24;;;;;;;11.38;3.63;;;;;;;;;;4957939;28;20047;-78
2022/06/10 09:38:53;;;;;;;8.43;3.58;;;;;;;;;;4957634;28;20125;-78
2022/06/10 09:41:19;;;;;;;8.13;3.60;;;;;;;;;;4942044;28;20384;-78
2022/06/10 09:43:53;;;;;;;8.88;3.33;;;;;;;;;;4957706;28;20043;-78
2022/06/10 09:46:39;;;;;;;11.23;3.45;;;;;;;;;;4957649;28;20042;-78
2022/06/10 09:49:18;;;;;;;6.93;3.00;;;;;;;;;;4957390;28;20494;-78
2022/06/10 09:51:58;;;;;;;11.38;3.17;;;;;;;;;;4974534;28;20039;-78
2022/06/10 09:54:33;;;;;;;8.63;3.20;;;;;;;;;;4956205;28;20047;-78
2022/06/10 09:57:08;;;;;;;10.38;3.30;;;;;;;;;;4947392;28;20046;-78
2022/06/10 09:59:53;;;;;;;12.32;3.38;;;;;;;;;;4956916;28;20105;-78
2022/06/10 10:02:19;;;;;;;9.98;2.92;;;;;;;;;;4957845;28;20039;-78
2022/06/10 10:04:52;;;;;;;10.30;3.10;;;;;;;;;;4957180;28;20122;-78
2022/06/10 10:07:36;;;;;;;8.35;3.05;;;;;;;;;;4942089;28;20050;-78
2022/06/10 10:10:06;;;;;;;10.82;3.17;;;;;;;;;;4940140;28;20050;-78
2022/06/10 10:12:47;;;;;;;10.82;3.05;;;;;;;;;;4957673;28;20034;-78
2022/06/10 10:15:32;;;;;;;7.95;2.70;;;;;;;;;;4957769;28;20471;-78
2022/06/10 10:18:08;;;;;;;9.85;2.85;;;;;;;;;;4957286;28;20046;-78
2022/06/10 10:20:43;;;;;;;9.13;3.45;;;;;;;;;;4941098;28;20053;-78
2022/06/10 10:23:17;;;;;;;9.80;3.20;;;;;;;;;;4957419;28;20078;-79
2022/06/10 10:25:45;;;;;;;10.05;3.10;;;;;;;;;;4957434;28;20070;-78
2022/06/10 10:28:21;;;;;;;7.70;3.10;;;;;;;;;;4956927;28;20058;-79
2022/06/10 10:30:51;;;;;;;7.88;3.35;;;;;;;;;;4955640;28;20047;-78
2022/06/10 10:33:17;;;;;;;8.95;3.78;;;;;;;;;;4957170;28;20043;-78
2022/06/10 10:35:46;;;;;;;8.43;3.80;;;;;;;;;;4940395;28;20058;-79
2022/06/10 10:38:51;;;;;;;10.45;4.40;;;;;;;;;;4980831;28;20393;-79
2022/06/10 10:41:20;;;;;;;11.45;4.00;;;;;;;;;;4921336;29;20040;-78
2022/06/10 10:43:48;;;;;;;10.32;3.75;;;;;;;;;;4909994;29;20055;-79
2022/06/10 10:46:35;;;;;;;8.20;4.05;;;;;;;;;;4935637;28;20050;-78
2022/06/10 10:49:17;;;;;;;10.70;4.93;;;;;;;;;;4956717;28;20494;-78
2022/06/10 10:51:46;;;;;;;9.73;4.50;;;;;;;;;;4956569;28;20058;-78
2022/06/10 10:54:15;;;;;;;11.18;4.20;;;;;;;;;;4962838;28;20054;-79
2022/06/10 10:56:43;;;;;;;11.57;4.45;;;;;;;;;;4965954;28;20043;-78
2022/06/10 10:59:24;;;;;;;10.40;4.05;;;;;;;;;;4965991;28;20054;-78
2022/06/10 11:01:51;;;;;;;11.48;4.00;;;;;;;;;;4942671;28;20078;-78
2022/06/10 11:04:36;;;;;;;8.85;4.10;;;;;;;;;;4974245;28;20054;-78
2022/06/10 11:07:05;;;;;;;10.57;4.45;;;;;;;;;;4955974;28;20047;-80
2022/06/10 11:09:32;;;;;;;11.70;4.35;;;;;;;;;;4973433;28;20039;-80
2022/06/10 11:12:02;;;;;;;9.07;4.32;;;;;;;;;;4923182;28;20046;-80
2022/06/10 11:14:35;;;;;;;10.85;3.97;;;;;;;;;;4974184;28;20477;-80
2022/06/10 11:17:01;;;;;;;9.48;4.05;;;;;;;;;;4955851;28;20117;-75
2022/06/10 11:19:28;;;;;;;8.77;3.85;;;;;;;;;;4940566;28;20102;-75
2022/06/10 11:22:09;;;;;;;7.80;3.83;;;;;;;;;;4955513;28;20035;-75
2022/06/10 11:24:37;;;;;;;11.32;4.28;;;;;;;;;;4955787;28;20051;-74
2022/06/10 11:27:18;;;;;;;11.57;4.30;;;;;;;;;;4955550;28;20043;-74
2022/06/10 11:29:57;;;;;;;9.15;3.95;;;;;;;;;;4956424;28;20047;-74
2022/06/10 11:32:25;;;;;;;10.10;3.53;;;;;;;;;;4951143;28;20447;-75
2022/06/10 11:35:00;;;;;;;11.30;4.15;;;;;;;;;;4954144;28;20054;-74
2022/06/10 11:37:38;;;;;;;11.18;4.05;;;;;;;;;;4939082;28;20117;-74
2022/06/10 11:40:15;;;;;;;9.88;4.15;;;;;;;;;;4954717;28;20056;-74
2022/06/10 11:42:46;;;;;;;9.93;3.95;;;;;;;;;;4954729;28;20053;-73
2022/06/10 11:45:17;;;;;;;10.15;3.78;;;;;;;;;;4954352;28;20122;-73
2022/06/10 11:47:51;;;;;;;11.48;4.00;;;;;;;;;;4941218;28;20054;-73
2022/06/10 11:50:46;;;;;;;9.55;4.50;;;;;;;;;;4955725;28;20049;-75
2022/06/10 11:53:37;;;;;;;13.73;4.70;;;;;;;;;;4931027;28;20090;-74
2022/06/10 12:01:47;;;;;;;11.38;4.43;;;;;;;;;;4955517;28;20042;-74
2022/06/10 12:04:12;;;;;;;;;;;;;;;;;;4955395;28;20537;-74
2022/06/10 12:06:38;;;;;;;;;;;;;;;;;;4955856;28;19965;-74
2022/06/10 12:09:04;;;;;;;;;;;;;;;;;;4955988;28;19925;-74
2022/06/10 12:11:30;;;;;;;;;;;;;;;;;;4955936;28;19918;-74
2022/06/10 12:14:15;;;;;;;9.13;4.95;;;;;;;;;;4939574;28;19972;-75
2022/06/10 12:16:43;;;;;;;9.57;4.65;;;;;;;;;;4939022;28;20093;-74
2022/06/10 12:19:20;;;;;;;8.93;4.65;;;;;;;;;;4955546;28;20054;-74
2022/06/10 12:21:46;;;;;;;9.30;4.65;;;;;;;;;;4958270;28;20046;-74
2022/06/10 12:24:18;;;;;;;7.72;4.38;;;;;;;;;;4958871;28;20046;-74
2022/06/10 12:26:49;;;;;;;10.63;4.43;;;;;;;;;;4959337;28;20086;-74
2022/06/10 12:29:16;;;;;;;8.10;3.88;;;;;;;;;;4961437;28;20050;-74
2022/06/10 12:31:48;;;;;;;7.25;3.95;;;;;;;;;;4943517;28;20407;-74
2022/06/10 12:34:32;;;;;;;9.80;4.40;;;;;;;;;;4943008;28;20043;-74
2022/06/10 12:37:06;;;;;;;7.97;3.83;;;;;;;;;;4958944;28;20121;-74
2022/06/10 12:39:39;;;;;;;8.75;4.50;;;;;;;;;;4959544;28;20046;-74
2022/06/10 12:42:11;;;;;;;8.35;4.55;;;;;;;;;;4975894;28;20045;-73
2022/06/10 12:44:48;;;;;;;11.10;4.45;;;;;;;;;;4958693;28;20074;-73
2022/06/10 12:47:22;;;;;;;9.15;4.57;;;;;;;;;;4957261;28;20108;-73
2022/06/10 12:49:55;;;;;;;10.87;4.17;;;;;;;;;;4958450;28;20050;-73
2022/06/10 12:52:32;;;;;;;6.35;3.60;;;;;;;;;;4941794;28;20286;-73
2022/06/10 12:55:05;;;;;;;5.43;3.20;;;;;;;;;;4975511;28;20054;-75
2022/06/10 12:57:39;;;;;;;7.93;3.30;;;;;;;;;;4957760;28;20039;-75
2022/06/10 13:00:24;;;;;;;7.88;2.83;;;;;;;;;;4958399;28;20173;-75
2022/06/10 13:02:50;;;;;;;7.03;2.53;;;;;;;;;;4958734;28;20426;-74
2022/06/10 13:05:32;;;;;;;7.15;2.33;;;;;;;;;;4942010;28;20038;-74
2022/06/10 13:07:58;;;;;;;6.00;2.30;;;;;;;;;;4953509;28;20051;-74
2022/06/10 13:10:30;;;;;;;7.28;2.50;;;;;;;;;;4976262;28;20045;-74
2022/06/10 13:13:00;;;;;;;5.43;2.47;;;;;;;;;;4943129;28;20043;-74
2022/06/10 13:15:29;;;;;;;6.07;2.17;;;;;;;;;;4942143;28;20052;-74
2022/06/10 13:18:01;;;;;;;4.60;1.55;;;;;;;;;;4942565;28;20642;-74
2022/06/10 13:20:27;;;;;;;4.88;1.80;;;;;;;;;;4958112;28;20070;-73
2022/06/10 13:23:10;;;;;;;8.05;1.92;;;;;;;;;;4958450;28;20046;-74
2022/06/10 13:25:37;;;;;;;5.72;1.90;;;;;;;;;;4958230;28;20046;-74
2022/06/10 13:28:12;;;;;;;5.13;1.73;;;;;;;;;;4957863;28;20411;-74
2022/06/10 13:30:38;;;;;;;5.07;2.03;;;;;;;;;;4942102;28;20046;-73
2022/06/10 13:33:06;;;;;;;6.35;2.20;;;;;;;;;;4957524;28;20130;-73
2022/06/10 13:35:37;;;;;;;6.45;1.70;;;;;;;;;;4957936;28;20042;-73
2022/06/10 13:38:09;;;;;;;5.20;1.70;;;;;;;;;;4966815;28;20058;-73
2022/06/10 13:40:35;;;;;;;4.43;1.65;;;;;;;;;;4975393;28;20148;-73
2022/06/10 13:43:02;;;;;;;5.82;1.80;;;;;;;;;;4958195;28;20113;-73
2022/06/10 13:45:30;;;;;;;5.90;1.73;;;;;;;;;;4957080;28;20092;-74
2022/06/10 13:48:00;;;;;;;5.40;1.85;;;;;;;;;;4957275;28;20047;-73
2022/06/10 13:53:06;;;;;;;6.78;1.95;;;;;;;;;;4957896;28;20286;-74
2022/06/10 13:55:40;;;;;;;6.85;2.10;;;;;;;;;;4957236;28;20058;-74
2022/06/10 13:58:07;;;;;;;5.82;1.77;;;;;;;;;;4941820;28;20055;-73
2022/06/10 14:00:36;;;;;;;5.38;1.70;;;;;;;;;;4957028;28;20542;-73
2022/06/10 14:03:03;;;;;;;5.63;1.90;;;;;;;;;;4957563;28;20043;-73
2022/06/10 14:05:29;;;;;;;6.93;2.22;;;;;;;;;;4957018;28;20117;-74
2022/06/10 14:07:59;;;;;;;6.55;1.80;;;;;;;;;;4957635;28;20043;-75
2022/06/10 14:10:27;;;;;;;6.72;2.00;;;;;;;;;;4940177;28;20039;-75
2022/06/10 14:12:56;;;;;;;6.88;1.83;;;;;;;;;;4958358;28;20046;-74
2022/06/10 14:15:26;;;;;;;8.02;1.90;;;;;;;;;;4944071;28;20047;-74
2022/06/10 14:17:54;;;;;;;6.40;2.13;;;;;;;;;;4957610;28;20518;-75
2022/06/10 14:20:21;;;;;;;7.35;2.13;;;;;;;;;;4957306;28;20043;-74
2022/06/10 14:22:48;;;;;;;6.43;2.05;;;;;;;;;;4956818;28;20043;-74
2022/06/10 14:25:14;;;;;;;6.38;1.95;;;;;;;;;;4957409;28;20050;-75
2022/06/10 14:27:44;;;;;;;5.40;1.67;;;;;;;;;;4953192;28;20057;-74
2022/06/10 14:30:22;;;;;;;8.05;2.00;;;;;;;;;;4938568;29;20454;-75
2022/06/10 14:32:54;;;;;;;7.70;1.83;;;;;;;;;;4920633;29;20122;-74
2022/06/10 14:35:32;;;;;;;6.95;2.30;;;;;;;;;;4938116;29;20050;-75
2022/06/10 14:38:01;;;;;;;7.47;1.95;;;;;;;;;;4933597;29;20043;-74
2022/06/10 14:40:27;;;;;;;7.28;2.00;;;;;;;;;;4921992;29;20034;-74
2022/06/10 14:43:12;;;;;;;7.53;2.25;;;;;;;;;;4936178;29;20105;-74
2022/06/10 14:45:40;;;;;;;6.47;2.00;;;;;;;;;;4934226;29;20083;-75
2022/06/10 14:48:06;;;;;;;5.40;1.92;;;;;;;;;;4936547;29;20080;-75
2022/06/10 14:50:33;;;;;;;6.43;1.98;;;;;;;;;;4936305;29;20558;-75
2022/06/10 14:52:59;;;;;;;9.43;2.08;;;;;;;;;;4953601;28;20050;-75
2022/06/10 14:55:30;;;;;;;6.88;1.90;;;;;;;;;;4935668;29;20047;-75
2022/06/10 14:58:02;;;;;;;7.15;2.20;;;;;;;;;;4936045;29;20134;-75
2022/06/10 15:00:30;;;;;;;6.32;2.13;;;;;;;;;;4935362;29;20046;-75
2022/06/10 15:02:56;;;;;;;5.53;1.95;;;;;;;;;;4936265;29;20070;-75
2022/06/10 15:08:11;;;;;;;5.40;1.83;;;;;;;;;;4936995;28;20644;-75
2022/06/10 15:10:39;;;;;;;6.43;1.70;;;;;;;;;;4934912;29;20035;-74
2022/06/10 15:13:09;;;;;;;6.07;2.00;;;;;;;;;;4921335;28;20050;-75
2022/06/10 15:15:35;;;;;;;4.07;1.77;;;;;;;;;;4937556;29;20126;-74
2022/06/10 15:18:01;;;;;;;5.65;2.17;;;;;;;;;;4909209;29;20058;-75
2022/06/10 15:20:27;;;;;;;4.35;1.90;;;;;;;;;;4924464;29;20043;-75
2022/06/10 15:22:54;;;;;;;5.50;1.90;;;;;;;;;;4937053;29;20054;-74
2022/06/10 15:25:24;;;;;;;3.95;2.00;;;;;;;;;;4926422;28;20043;-75
2022/06/10 15:27:51;;;;;;;6.93;2.35;;;;;;;;;;4960536;28;20109;-74
2022/06/10 15:30:18;;;;;;;4.00;1.65;;;;;;;;;;4962760;28;20053;-75